createdAt,value
2017-12-24T00:00:05.650Z,21.9
2017-12-24T00:02:05.004Z,21.9
2017-12-24T00:04:05.304Z,21.8
2017-12-24T00:06:05.107Z,21.8
2017-12-24T00:08:04.865Z,21.8
2017-12-24T00:10:10.249Z,21.8
2017-12-24T00:12:05.016Z,21.8
2017-12-24T00:14:07.600Z,21.8
2017-12-24T00:16:08.007Z,21.8
2017-12-24T00:18:05.555Z,21.8
2017-12-24T00:20:05.297Z,21.8
2017-12-24T00:22:05.108Z,21.8
2017-12-24T00:24:04.880Z,21.8
2017-12-24T00:26:04.641Z,21.8
2017-12-24T00:28:07.946Z,21.7
2017-12-24T00:30:04.701Z,21.8
2017-12-24T00:32:05.484Z,21.7
2017-12-24T00:34:05.301Z,21.7
2017-12-24T00:36:08.124Z,21.7
2017-12-24T00:38:07.426Z,21.6
2017-12-24T00:40:05.391Z,21.6
2017-12-24T00:42:05.157Z,21.6
2017-12-24T00:44:05.429Z,21.6
2017-12-24T00:46:05.291Z,21.6
2017-12-24T00:48:05.585Z,21.6
2017-12-24T00:50:04.899Z,21.6
2017-12-24T00:52:07.230Z,21.6
2017-12-24T00:54:04.964Z,21.6
2017-12-24T00:56:07.254Z,21.6
2017-12-24T00:58:05.597Z,21.6
2017-12-24T01:00:10.581Z,21.6
2017-12-24T01:02:04.971Z,21.6
2017-12-24T01:04:04.827Z,21.6
2017-12-24T01:06:05.569Z,21.6
2017-12-24T01:08:05.320Z,21.6
2017-12-24T01:10:05.166Z,21.6
2017-12-24T01:12:07.475Z,21.5
2017-12-24T01:14:07.856Z,21.5
2017-12-24T01:16:08.151Z,21.4
2017-12-24T01:18:05.153Z,21.5
2017-12-24T01:20:04.867Z,21.5
2017-12-24T01:22:05.151Z,21.5
2017-12-24T01:24:10.521Z,21.4
2017-12-24T01:26:05.289Z,21.5
2017-12-24T01:28:05.102Z,21.4
2017-12-24T01:30:04.832Z,21.4
2017-12-24T01:32:05.601Z,21.5
2017-12-24T01:34:15.496Z,21.4
2017-12-24T01:36:05.288Z,21.4
2017-12-24T01:38:05.206Z,21.4
2017-12-24T01:40:07.550Z,21.4
2017-12-24T01:42:04.813Z,21.4
2017-12-24T01:44:05.657Z,21.4
2017-12-24T01:46:05.449Z,21.4
2017-12-24T01:48:04.765Z,21.4
2017-12-24T01:50:07.171Z,21.4
2017-12-24T01:52:08.097Z,21.4
2017-12-24T01:54:07.956Z,21.4
2017-12-24T01:56:04.700Z,21.4
2017-12-24T01:58:05.492Z,21.4
2017-12-24T02:00:05.277Z,21.4
2017-12-24T02:02:05.079Z,21.4
2017-12-24T02:04:05.008Z,21.4
2017-12-24T02:06:04.793Z,21.4
2017-12-24T02:08:05.580Z,21.4
2017-12-24T02:10:07.955Z,21.4
2017-12-24T02:12:04.719Z,21.4
2017-12-24T02:14:05.520Z,21.4
2017-12-24T02:16:05.344Z,21.4
2017-12-24T02:18:05.426Z,21.3
2017-12-24T02:20:05.179Z,21.3
2017-12-24T02:22:04.964Z,21.3
2017-12-24T02:24:04.714Z,21.3
2017-12-24T02:26:08.002Z,21.3
2017-12-24T02:28:04.786Z,21.3
2017-12-24T02:30:05.630Z,21.3
2017-12-24T02:32:05.472Z,21.3
2017-12-24T02:34:10.305Z,21.2
2017-12-24T02:36:04.677Z,21.3
2017-12-24T02:38:05.434Z,21.3
2017-12-24T02:40:05.233Z,21.3
2017-12-24T02:42:12.655Z,21.3
2017-12-24T02:44:05.443Z,21.3
2017-12-24T02:46:05.199Z,21.2
2017-12-24T02:48:04.973Z,21.3
2017-12-24T02:50:04.769Z,21.2
2017-12-24T02:52:05.606Z,21.3
2017-12-24T02:54:05.503Z,21.2
2017-12-24T02:56:04.869Z,21.2
2017-12-24T02:58:04.783Z,21.2
2017-12-24T03:00:05.543Z,21.2
2017-12-24T03:02:05.328Z,21.2
2017-12-24T03:04:07.699Z,21.2
2017-12-24T03:06:10.054Z,21.2
2017-12-24T03:08:04.852Z,21.3
2017-12-24T03:10:04.822Z,21.3
2017-12-24T03:12:04.660Z,21.3
2017-12-24T03:14:05.420Z,21.2
2017-12-24T03:16:07.746Z,21.3
2017-12-24T03:18:04.756Z,21.2
2017-12-24T03:20:05.481Z,21.2
2017-12-24T03:22:05.252Z,21.3
2017-12-24T03:24:05.544Z,21.2
2017-12-24T03:26:05.421Z,21.2
2017-12-24T03:28:08.060Z,21.2
2017-12-24T03:30:04.923Z,21.2
2017-12-24T03:32:07.346Z,21.1
2017-12-24T03:34:09.795Z,21.2
2017-12-24T03:36:05.598Z,21.1
2017-12-24T03:38:05.376Z,21.2
2017-12-24T03:40:12.828Z,21.1
2017-12-24T03:42:04.913Z,21.1
2017-12-24T03:44:04.758Z,21.2
2017-12-24T03:46:05.588Z,21.2
2017-12-24T03:48:18.187Z,21.2
2017-12-24T03:50:04.964Z,21.1
2017-12-24T03:52:04.751Z,21.2
2017-12-24T03:54:04.882Z,21.2
2017-12-24T03:56:04.768Z,21.2
2017-12-24T03:58:13.127Z,21.2
2017-12-24T04:00:05.013Z,21.2
2017-12-24T04:02:09.851Z,21.2
2017-12-24T04:04:07.926Z,21.2
2017-12-24T04:06:04.771Z,21.2
2017-12-24T04:08:05.551Z,21.2
2017-12-24T04:10:07.980Z,21.1
2017-12-24T04:12:04.769Z,21.1
2017-12-24T04:14:05.582Z,21.1
2017-12-24T04:16:05.456Z,21.1
2017-12-24T04:18:05.497Z,21
2017-12-24T04:20:05.318Z,21.1
2017-12-24T04:22:05.095Z,21.1
2017-12-24T04:24:04.956Z,21.1
2017-12-24T04:26:07.797Z,21.1
2017-12-24T04:28:07.690Z,21.1
2017-12-24T04:30:08.079Z,21.1
2017-12-24T04:32:04.825Z,21.1
2017-12-24T04:34:05.606Z,21.1
2017-12-24T04:36:07.898Z,21.2
2017-12-24T04:38:04.696Z,21.1
2017-12-24T04:40:05.444Z,21.1
2017-12-24T04:42:05.556Z,21.1
2017-12-24T04:44:04.913Z,21.1
2017-12-24T04:46:07.553Z,21.1
2017-12-24T04:48:04.817Z,21.1
2017-12-24T04:50:05.782Z,21.1
2017-12-24T04:52:05.715Z,21.1
2017-12-24T04:54:08.020Z,21.1
2017-12-24T04:56:07.474Z,21.1
2017-12-24T04:58:05.224Z,21.1
2017-12-24T05:00:05.212Z,21.1
2017-12-24T05:02:04.944Z,21.2
2017-12-24T05:04:07.275Z,21.2
2017-12-24T05:06:07.525Z,21.2
2017-12-24T05:08:05.248Z,21.1
2017-12-24T05:10:05.023Z,21.2
2017-12-24T05:12:17.503Z,21.1
2017-12-24T05:14:05.390Z,21.1
2017-12-24T05:16:05.295Z,21.1
2017-12-24T05:18:05.292Z,21.2
2017-12-24T05:20:05.114Z,21.1
2017-12-24T05:22:04.944Z,21.2
2017-12-24T05:24:04.771Z,21.2
2017-12-24T05:26:05.543Z,21.2
2017-12-24T05:28:05.407Z,21.2
2017-12-24T05:30:05.141Z,21.1
2017-12-24T05:32:04.860Z,21.2
2017-12-24T05:34:04.733Z,21.2
2017-12-24T05:36:08.093Z,21.2
2017-12-24T05:38:05.429Z,21.2
2017-12-24T05:40:05.302Z,21.1
2017-12-24T05:42:05.073Z,21.1
2017-12-24T05:44:05.033Z,21.1
2017-12-24T05:46:04.898Z,21.1
2017-12-24T05:48:05.373Z,21.1
2017-12-24T05:50:05.098Z,21.1
2017-12-24T05:52:08.103Z,21.1
2017-12-24T05:54:08.299Z,21.1
2017-12-24T05:56:04.960Z,21.1
2017-12-24T05:58:05.010Z,21.1
2017-12-24T06:00:04.740Z,21.1
2017-12-24T06:02:05.528Z,21.1
2017-12-24T06:04:05.463Z,21.1
2017-12-24T06:06:05.255Z,21.2
2017-12-24T06:08:07.548Z,21.2
2017-12-24T06:10:05.450Z,21.2
2017-12-24T06:12:05.194Z,21.2
2017-12-24T06:14:04.998Z,21.2
2017-12-24T06:16:05.086Z,21.2
2017-12-24T06:18:07.651Z,21.2
2017-12-24T06:20:05.432Z,21.2
2017-12-24T06:22:04.754Z,21.2
2017-12-24T06:24:05.565Z,21.2
2017-12-24T06:26:10.041Z,21.2
2017-12-24T06:28:04.877Z,21.2
2017-12-24T06:30:04.629Z,21.2
2017-12-24T06:32:10.446Z,21.2
2017-12-24T06:34:07.731Z,21.2
2017-12-24T06:36:05.510Z,21.2
2017-12-24T06:38:05.347Z,21.2
2017-12-24T06:40:05.683Z,21.2
2017-12-24T06:42:05.506Z,21.2
2017-12-24T06:44:05.249Z,21.2
2017-12-24T06:46:10.075Z,21.2
2017-12-24T06:48:07.366Z,21.2
2017-12-24T06:50:05.237Z,21.2
2017-12-24T06:52:07.588Z,21.2
2017-12-24T06:54:05.376Z,21.1
2017-12-24T06:56:05.145Z,21.2
2017-12-24T06:58:05.616Z,21.1
2017-12-24T07:00:07.429Z,21.1
2017-12-24T07:02:05.160Z,21.1
2017-12-24T07:04:04.983Z,21.1
2017-12-24T07:06:05.267Z,21.1
2017-12-24T07:08:05.042Z,21.1
2017-12-24T07:10:04.865Z,21.1
2017-12-24T07:12:04.743Z,21.1
2017-12-24T07:14:05.620Z,21.1
2017-12-24T07:16:05.077Z,21.1
2017-12-24T07:18:05.009Z,21.1
2017-12-24T07:20:04.781Z,21.1
2017-12-24T07:22:12.655Z,21.1
2017-12-24T07:24:05.426Z,21.1
2017-12-24T07:26:07.254Z,21
2017-12-24T07:28:05.638Z,21.1
2017-12-24T07:30:05.068Z,21
2017-12-24T07:32:07.364Z,21.1
2017-12-24T07:34:05.115Z,21.1
2017-12-24T07:36:04.907Z,21.1
2017-12-24T07:38:04.681Z,21.1
2017-12-24T07:40:07.967Z,21.1
2017-12-24T07:42:04.851Z,21.1
2017-12-24T07:44:08.162Z,21.1
2017-12-24T07:46:05.057Z,21.1
2017-12-24T07:48:04.830Z,21
2017-12-24T07:50:05.556Z,21.1
2017-12-24T07:52:09.953Z,21.1
2017-12-24T07:54:12.315Z,21.1
2017-12-24T07:56:05.075Z,21.1
2017-12-24T07:58:10.801Z,21.1
2017-12-24T08:00:05.245Z,21.1
2017-12-24T08:02:04.849Z,21.1
2017-12-24T08:04:05.184Z,21.1
2017-12-24T08:06:04.928Z,21.1
2017-12-24T08:08:04.728Z,21.1
2017-12-24T08:10:05.495Z,21.1
2017-12-24T08:12:05.239Z,21.2
2017-12-24T08:14:05.000Z,21.2
2017-12-24T08:16:04.795Z,21.2
2017-12-24T08:18:04.764Z,21.2
2017-12-24T08:20:05.523Z,21.2
2017-12-24T08:22:05.351Z,21.2
2017-12-24T08:24:05.197Z,21.2
2017-12-24T08:26:04.939Z,21.2
2017-12-24T08:28:07.202Z,21.2
2017-12-24T08:30:07.435Z,21.2
2017-12-24T08:32:05.214Z,21.2
2017-12-24T08:34:05.078Z,21.3
2017-12-24T08:36:04.899Z,21.3
2017-12-24T08:38:05.150Z,21.3
2017-12-24T08:40:07.702Z,21.3
2017-12-24T08:42:05.449Z,21.3
2017-12-24T08:44:14.878Z,21.3
2017-12-24T08:46:04.727Z,21.3
2017-12-24T08:48:07.991Z,21.4
2017-12-24T08:50:07.272Z,21.4
2017-12-24T08:52:05.423Z,21.3
2017-12-24T08:54:07.793Z,21.4
2017-12-24T08:56:04.614Z,21.4
2017-12-24T08:58:05.496Z,21.4
2017-12-24T09:00:05.223Z,21.4
2017-12-24T09:02:05.518Z,21.4
2017-12-24T09:04:07.796Z,21.4
2017-12-24T09:06:10.196Z,21.5
2017-12-24T09:08:04.941Z,21.4
2017-12-24T09:10:07.286Z,21.5
2017-12-24T09:12:05.094Z,21.4
2017-12-24T09:14:05.420Z,21.5
2017-12-24T09:16:04.901Z,21.5
2017-12-24T09:18:12.460Z,21.5
2017-12-24T09:20:05.200Z,21.5
2017-12-24T09:22:05.204Z,21.5
2017-12-24T09:24:05.008Z,21.6
2017-12-24T09:26:04.801Z,21.5
2017-12-24T09:28:05.615Z,21.6
2017-12-24T09:30:12.480Z,21.6
2017-12-24T09:32:07.400Z,21.6
2017-12-24T09:34:05.200Z,21.6
2017-12-24T09:36:04.928Z,21.6
2017-12-24T09:38:12.296Z,21.6
2017-12-24T09:40:05.069Z,21.6
2017-12-24T09:42:07.377Z,21.6
2017-12-24T09:44:05.098Z,21.6
2017-12-24T09:46:04.909Z,21.6
2017-12-24T09:48:07.207Z,21.6
2017-12-24T09:50:05.041Z,21.5
2017-12-24T09:52:05.389Z,21.6
2017-12-24T09:54:05.227Z,21.6
2017-12-24T09:56:05.014Z,21.6
2017-12-24T09:58:05.497Z,21.5
2017-12-24T10:00:05.289Z,21.6
2017-12-24T10:02:12.673Z,21.5
2017-12-24T10:04:05.446Z,21.5
2017-12-24T10:06:09.984Z,21.6
2017-12-24T10:08:04.720Z,21.6
2017-12-24T10:10:07.742Z,21.6
2017-12-24T10:12:06.559Z,21.5
2017-12-24T10:14:10.449Z,21.5
2017-12-24T10:16:05.259Z,21.6
2017-12-24T10:18:05.357Z,21.5
2017-12-24T10:20:04.646Z,21.6
2017-12-24T10:22:04.680Z,21.5
2017-12-24T10:24:05.068Z,21.6
2017-12-24T10:26:05.041Z,21.5
2017-12-24T10:28:04.800Z,21.5
2017-12-24T10:30:08.113Z,21.5
2017-12-24T10:32:04.894Z,21.5
2017-12-24T10:34:05.150Z,21.5
2017-12-24T10:36:04.873Z,21.5
2017-12-24T10:38:07.162Z,21.5
2017-12-24T10:40:04.971Z,21.5
2017-12-24T10:42:10.362Z,21.5
2017-12-24T10:44:05.152Z,21.5
2017-12-24T10:46:04.996Z,21.5
2017-12-24T10:48:04.860Z,21.5
2017-12-24T10:50:13.263Z,21.5
2017-12-24T10:52:08.192Z,21.5
2017-12-24T10:54:05.030Z,21.5
2017-12-24T10:56:05.373Z,21.5
2017-12-24T10:58:05.226Z,21.5
2017-12-24T11:00:05.044Z,21.5
2017-12-24T11:02:04.809Z,21.4
2017-12-24T11:04:06.122Z,21.4
2017-12-24T11:06:05.100Z,21.5
2017-12-24T11:08:04.856Z,21.5
2017-12-24T11:10:04.623Z,21.5
2017-12-24T11:12:05.466Z,21.5
2017-12-24T11:14:05.270Z,21.5
2017-12-24T11:16:05.079Z,21.5
2017-12-24T11:18:10.169Z,21.5
2017-12-24T11:20:04.962Z,21.5
2017-12-24T11:22:10.846Z,21.5
2017-12-24T11:24:04.824Z,21.5
2017-12-24T11:26:05.568Z,21.5
2017-12-24T11:28:05.358Z,21.6
2017-12-24T11:30:08.070Z,21.5
2017-12-24T11:32:04.877Z,21.6
2017-12-24T11:34:08.206Z,21.5
2017-12-24T11:36:04.998Z,21.6
2017-12-24T11:38:04.778Z,21.6
2017-12-24T11:40:05.071Z,21.6
2017-12-24T11:42:04.864Z,21.6
2017-12-24T11:44:07.640Z,21.6
2017-12-24T11:46:05.498Z,21.6
2017-12-24T11:48:07.849Z,21.7
2017-12-24T11:50:05.618Z,21.7
2017-12-24T11:52:05.092Z,21.7
2017-12-24T11:54:07.394Z,21.7
2017-12-24T11:56:05.208Z,21.7
2017-12-24T11:58:07.532Z,21.7
2017-12-24T12:00:05.271Z,21.7
2017-12-24T12:02:05.663Z,21.8
2017-12-24T12:04:05.440Z,21.7
2017-12-24T12:06:07.709Z,21.7
2017-12-24T12:08:05.618Z,21.7
2017-12-24T12:10:05.427Z,21.7
2017-12-24T12:12:05.310Z,21.7
2017-12-24T12:14:05.112Z,21.7
2017-12-24T12:16:05.035Z,21.7
2017-12-24T12:18:05.561Z,21.7
2017-12-24T12:20:05.324Z,21.8
2017-12-24T12:22:08.158Z,21.8
2017-12-24T12:24:05.400Z,21.7
2017-12-24T12:26:05.189Z,21.8
2017-12-24T12:28:04.953Z,21.7
2017-12-24T12:30:04.723Z,21.7
2017-12-24T12:32:07.976Z,21.7
2017-12-24T12:34:04.731Z,21.8
2017-12-24T12:36:05.451Z,21.7
2017-12-24T12:38:04.785Z,21.8
2017-12-24T12:40:10.842Z,21.8
2017-12-24T12:42:05.609Z,21.8
2017-12-24T12:44:05.376Z,21.8
2017-12-24T12:46:05.408Z,21.8
2017-12-24T12:48:04.690Z,21.8
2017-12-24T12:50:08.054Z,21.8
2017-12-24T12:52:09.935Z,21.8
2017-12-24T12:54:04.652Z,21.8
2017-12-24T12:56:07.916Z,21.8
2017-12-24T12:58:05.267Z,21.8
2017-12-24T13:00:04.999Z,21.8
2017-12-24T13:02:04.717Z,21.8
2017-12-24T13:04:05.551Z,21.8
2017-12-24T13:06:05.444Z,21.8
2017-12-24T13:08:07.849Z,21.9
2017-12-24T13:10:07.965Z,21.9
2017-12-24T13:12:04.778Z,21.8
2017-12-24T13:14:05.083Z,21.9
2017-12-24T13:16:04.893Z,21.9
2017-12-24T13:18:09.901Z,21.9
2017-12-24T13:20:04.632Z,21.9
2017-12-24T13:22:05.490Z,21.9
2017-12-24T13:24:05.244Z,21.9
2017-12-24T13:26:04.983Z,21.9
2017-12-24T13:28:04.868Z,21.9
2017-12-24T13:30:04.640Z,21.9
2017-12-24T13:32:07.904Z,21.9
2017-12-24T13:34:04.658Z,21.9
2017-12-24T13:36:05.504Z,21.9
2017-12-24T13:38:05.310Z,21.9
2017-12-24T13:40:05.102Z,21.9
2017-12-24T13:42:05.015Z,21.9
2017-12-24T13:44:07.840Z,21.9
2017-12-24T13:46:08.154Z,21.9
2017-12-24T13:48:07.453Z,22
2017-12-24T13:50:04.751Z,22
2017-12-24T13:52:05.537Z,22
2017-12-24T13:54:05.353Z,22
2017-12-24T13:56:05.142Z,22
2017-12-24T13:58:04.956Z,22
2017-12-24T14:00:09.773Z,22
2017-12-24T14:02:05.626Z,22
2017-12-24T14:04:05.470Z,22
2017-12-24T14:06:05.197Z,22
2017-12-24T14:08:07.458Z,22
2017-12-24T14:10:08.048Z,22
2017-12-24T14:12:05.322Z,22
2017-12-24T14:14:10.127Z,22.1
2017-12-24T14:16:07.467Z,22.1
2017-12-24T14:18:10.004Z,22.1
2017-12-24T14:20:07.294Z,22.1
2017-12-24T14:22:07.659Z,22.1
2017-12-24T14:24:07.981Z,22.1
2017-12-24T14:26:09.801Z,22.1
2017-12-24T14:28:05.568Z,22.1
2017-12-24T14:30:05.367Z,22.1
2017-12-24T14:32:05.152Z,22.1
2017-12-24T14:34:04.893Z,22.1
2017-12-24T14:36:08.219Z,22.1
2017-12-24T14:38:04.927Z,22.1
2017-12-24T14:40:07.200Z,22.1
2017-12-24T14:42:04.923Z,22.1
2017-12-24T14:44:04.709Z,22.1
2017-12-24T14:46:05.544Z,22.1
2017-12-24T14:48:05.033Z,22.1
2017-12-24T14:50:04.824Z,22.1
2017-12-24T14:52:05.583Z,22.1
2017-12-24T14:54:05.368Z,22.1
2017-12-24T14:56:07.659Z,22.1
2017-12-24T14:58:05.500Z,22.1
2017-12-24T15:00:05.828Z,22.1
2017-12-24T15:02:05.613Z,22.1
2017-12-24T15:04:10.396Z,22.1
2017-12-24T15:06:05.324Z,22.1
2017-12-24T15:08:05.357Z,22.1
2017-12-24T15:10:10.215Z,22.1
2017-12-24T15:12:05.290Z,22.1
2017-12-24T15:14:05.102Z,22.1
2017-12-24T15:16:07.423Z,22.1
2017-12-24T15:18:05.354Z,22.1
2017-12-24T15:20:10.335Z,22.1
2017-12-24T15:22:08.262Z,22.1
2017-12-24T15:24:10.086Z,22.1
2017-12-24T15:26:04.840Z,22.2
2017-12-24T15:28:09.717Z,22.1
2017-12-24T15:30:05.575Z,22.1
2017-12-24T15:32:07.923Z,22.1
2017-12-24T15:34:07.176Z,22.1
2017-12-24T15:36:04.940Z,22.1
2017-12-24T15:38:05.204Z,22.1
2017-12-24T15:40:05.045Z,22.1
2017-12-24T15:42:04.911Z,22.1
2017-12-24T15:44:09.760Z,22.1
2017-12-24T15:46:05.105Z,22.1
2017-12-24T15:48:08.094Z,22.1
2017-12-24T15:50:05.385Z,22.1
2017-12-24T15:52:07.898Z,22.1
2017-12-24T15:54:07.244Z,22.1
2017-12-24T15:56:04.989Z,22.1
2017-12-24T15:58:07.530Z,22.1
2017-12-24T16:00:05.577Z,22.2
2017-12-24T16:02:05.422Z,22.1
2017-12-24T16:04:07.842Z,22.2
2017-12-24T16:06:09.699Z,22.2
2017-12-24T16:08:07.980Z,22.1
2017-12-24T16:10:04.816Z,22.1
2017-12-24T16:12:04.726Z,22.1
2017-12-24T16:14:05.484Z,22.2
2017-12-24T16:16:05.305Z,22.1
2017-12-24T16:18:05.322Z,22.1
2017-12-24T16:20:05.116Z,22.2
2017-12-24T16:22:07.388Z,22.2
2017-12-24T16:24:05.355Z,22.2
2017-12-24T16:26:10.163Z,22.2
2017-12-24T16:28:05.445Z,22.2
2017-12-24T16:30:10.458Z,22.2
2017-12-24T16:32:05.270Z,22.1
2017-12-24T16:34:14.653Z,22.2
2017-12-24T16:36:05.434Z,22.2
2017-12-24T16:38:07.764Z,22.1
2017-12-24T16:40:05.227Z,22.2
2017-12-24T16:42:04.971Z,22.2
2017-12-24T16:44:05.571Z,22.2
2017-12-24T16:46:05.381Z,22.2
2017-12-24T16:48:05.190Z,22.2
2017-12-24T16:50:05.136Z,22.2
2017-12-24T16:52:04.920Z,22.2
2017-12-24T16:54:04.686Z,22.2
2017-12-24T16:56:05.466Z,22.2
2017-12-24T16:58:05.648Z,22.2
2017-12-24T17:00:07.940Z,22.2
2017-12-24T17:02:04.865Z,22.2
2017-12-24T17:04:04.886Z,22.2
2017-12-24T17:06:04.919Z,22.2
2017-12-24T17:08:05.050Z,22.2
2017-12-24T17:10:05.412Z,22.2
2017-12-24T17:12:05.127Z,22.2
2017-12-24T17:14:04.903Z,22.2
2017-12-24T17:16:05.336Z,22.2
2017-12-24T17:18:04.853Z,22.2
2017-12-24T17:20:05.710Z,22.2
2017-12-24T17:22:08.025Z,22.2
2017-12-24T17:24:04.789Z,22.2
2017-12-24T17:26:05.619Z,22.2
2017-12-24T17:28:05.411Z,22.2
2017-12-24T17:30:07.670Z,22.3
2017-12-24T17:32:07.998Z,22.2
2017-12-24T17:34:04.824Z,22.2
2017-12-24T17:36:05.587Z,22.2
2017-12-24T17:38:05.503Z,22.2
2017-12-24T17:40:12.853Z,22.2
2017-12-24T17:42:05.157Z,22.2
2017-12-24T17:44:05.518Z,22.2
2017-12-24T17:46:05.251Z,22.2
2017-12-24T17:48:15.143Z,22.2
2017-12-24T17:50:04.977Z,22.2
2017-12-24T17:52:07.433Z,22.2
2017-12-24T17:54:05.306Z,22.2
2017-12-24T17:56:05.104Z,22.2
2017-12-24T17:58:07.354Z,22.2
2017-12-24T18:00:05.132Z,22.2
2017-12-24T18:02:04.908Z,22.2
2017-12-24T18:04:07.183Z,22.2
2017-12-24T18:06:04.924Z,22.2
2017-12-24T18:08:04.734Z,22.3
2017-12-24T18:10:05.563Z,22.2
2017-12-24T18:12:05.329Z,22.2
2017-12-24T18:14:05.156Z,22.2
2017-12-24T18:16:04.930Z,22.2
2017-12-24T18:18:04.938Z,22.2
2017-12-24T18:20:09.798Z,22.2
2017-12-24T18:22:05.559Z,22.2
2017-12-24T18:24:05.397Z,22.2
2017-12-24T18:26:05.175Z,22.3
2017-12-24T18:28:05.473Z,22.3
2017-12-24T18:30:07.778Z,22.2
2017-12-24T18:32:13.140Z,22.2
2017-12-24T18:34:04.908Z,22.2
2017-12-24T18:36:04.731Z,22.2
2017-12-24T18:38:05.504Z,22.3
2017-12-24T18:40:10.372Z,22.2
2017-12-24T18:42:05.173Z,22.2
2017-12-24T18:44:05.013Z,22.2
2017-12-24T18:46:07.301Z,22.2
2017-12-24T18:48:05.060Z,22.2
2017-12-24T18:50:04.818Z,22.3
2017-12-24T18:52:15.754Z,22.2
2017-12-24T18:54:13.142Z,22.2
2017-12-24T18:56:05.000Z,22.3
2017-12-24T18:58:05.397Z,22.3
2017-12-24T19:00:04.973Z,22.2
2017-12-24T19:02:04.858Z,22.3
2017-12-24T19:04:07.177Z,22.2
2017-12-24T19:06:04.997Z,22.2
2017-12-24T19:08:04.788Z,22.2
2017-12-24T19:10:10.588Z,22.3
2017-12-24T19:12:05.289Z,22.2
2017-12-24T19:14:05.643Z,22.3
2017-12-24T19:16:04.940Z,22.3
2017-12-24T19:18:07.443Z,22.2
2017-12-24T19:20:05.331Z,22.2
2017-12-24T19:22:05.075Z,22.2
2017-12-24T19:24:04.964Z,22.2
2017-12-24T19:26:04.820Z,22.2
2017-12-24T19:28:10.221Z,22.2
2017-12-24T19:30:05.533Z,22.2
2017-12-24T19:32:05.369Z,22.2
2017-12-24T19:34:07.721Z,22.3
2017-12-24T19:36:05.434Z,22.2
2017-12-24T19:38:04.758Z,22.3
2017-12-24T19:40:05.509Z,22.3
2017-12-24T19:42:07.374Z,22.3
2017-12-24T19:44:04.727Z,22.3
2017-12-24T19:46:08.017Z,22.3
2017-12-24T19:48:04.796Z,22.3
2017-12-24T19:50:05.570Z,22.3
2017-12-24T19:52:05.312Z,22.3
2017-12-24T19:54:05.608Z,22.3
2017-12-24T19:56:07.890Z,22.2
2017-12-24T19:58:04.617Z,22.3
2017-12-24T20:00:05.378Z,22.3
2017-12-24T20:02:09.854Z,22.3
2017-12-24T20:04:05.554Z,22.3
2017-12-24T20:06:05.380Z,22.3
2017-12-24T20:08:05.198Z,22.3
2017-12-24T20:10:04.996Z,22.3
2017-12-24T20:12:05.279Z,22.3
2017-12-24T20:14:05.088Z,22.3
2017-12-24T20:16:04.845Z,22.3
2017-12-24T20:18:07.420Z,22.3
2017-12-24T20:20:04.712Z,22.3
2017-12-24T20:22:05.524Z,22.3
2017-12-24T20:24:05.449Z,22.3
2017-12-24T20:26:12.343Z,22.3
2017-12-24T20:28:08.109Z,22.3
2017-12-24T20:30:04.889Z,22.3
2017-12-24T20:32:04.706Z,22.3
2017-12-24T20:34:05.497Z,22.3
2017-12-24T20:36:05.289Z,22.3
2017-12-24T20:38:05.680Z,22.3
2017-12-24T20:40:05.435Z,22.3
2017-12-24T20:42:07.743Z,22.3
2017-12-24T20:44:05.569Z,22.3
2017-12-24T20:46:05.332Z,22.3
2017-12-24T20:48:07.685Z,22.3
2017-12-24T20:50:05.473Z,22.3
2017-12-24T20:52:04.855Z,22.3
2017-12-24T20:54:05.591Z,22.3
2017-12-24T20:56:05.383Z,22.3
2017-12-24T20:58:07.635Z,22.3
2017-12-24T21:00:05.390Z,22.3
2017-12-24T21:02:05.135Z,22.3
2017-12-24T21:04:04.866Z,22.3
2017-12-24T21:06:05.245Z,22.3
2017-12-24T21:08:05.009Z,22.3
2017-12-24T21:10:04.824Z,22.3
2017-12-24T21:12:05.614Z,22.3
2017-12-24T21:14:05.369Z,22.3
2017-12-24T21:16:07.708Z,22.3
2017-12-24T21:18:07.734Z,22.3
2017-12-24T21:20:05.544Z,22.3
2017-12-24T21:22:05.446Z,22.3
2017-12-24T21:24:07.764Z,22.3
2017-12-24T21:26:08.071Z,22.3
2017-12-24T21:28:04.805Z,22.3
2017-12-24T21:30:04.779Z,22.3
2017-12-24T21:32:05.603Z,22.3
2017-12-24T21:34:05.357Z,22.3
2017-12-24T21:36:05.352Z,22.3
2017-12-24T21:38:05.171Z,22.3
2017-12-24T21:40:04.949Z,22.3
2017-12-24T21:42:07.437Z,22.3
2017-12-24T21:44:12.828Z,22.3
2017-12-24T21:46:05.650Z,22.3
2017-12-24T21:48:05.438Z,22.3
2017-12-24T21:50:05.396Z,22.3
2017-12-24T21:52:10.246Z,22.3
2017-12-24T21:54:05.018Z,22.3
2017-12-24T21:56:04.818Z,22.3
2017-12-24T21:58:05.065Z,22.3
2017-12-24T22:00:04.876Z,22.3
2017-12-24T22:02:04.650Z,22.3
2017-12-24T22:04:05.434Z,22.3
2017-12-24T22:06:07.267Z,22.4
2017-12-24T22:08:10.282Z,22.3
2017-12-24T22:10:05.272Z,22.3
2017-12-24T22:12:05.073Z,22.4
2017-12-24T22:14:04.874Z,22.3
2017-12-24T22:16:07.221Z,22.3
2017-12-24T22:18:05.148Z,22.3
2017-12-24T22:20:05.278Z,22.3
2017-12-24T22:22:04.793Z,22.3
2017-12-24T22:24:05.563Z,22.3
2017-12-24T22:26:05.527Z,22.3
2017-12-24T22:28:05.319Z,22.3
2017-12-24T22:30:05.030Z,22.3
2017-12-24T22:32:04.757Z,22.4
2017-12-24T22:34:05.488Z,22.4
2017-12-24T22:36:04.825Z,22.3
2017-12-24T22:38:07.376Z,22.4
2017-12-24T22:40:10.194Z,22.3
2017-12-24T22:42:05.011Z,22.3
2017-12-24T22:44:04.777Z,22.3
2017-12-24T22:46:05.620Z,22.4
2017-12-24T22:48:05.427Z,22.4
2017-12-24T22:50:05.196Z,22.4
2017-12-24T22:52:04.919Z,22.4
2017-12-24T22:54:04.731Z,22.4
2017-12-24T22:56:05.586Z,22.4
2017-12-24T22:58:13.076Z,22.4
2017-12-24T23:00:07.396Z,22.4
2017-12-24T23:02:05.330Z,22.4
2017-12-24T23:04:07.589Z,22.4
2017-12-24T23:06:10.450Z,22.3
2017-12-24T23:08:05.207Z,22.3
2017-12-24T23:10:04.980Z,22.4
2017-12-24T23:12:09.793Z,22.3
2017-12-24T23:14:07.629Z,22.3
2017-12-24T23:16:08.675Z,22.3
2017-12-24T23:18:05.157Z,22.3
2017-12-24T23:20:10.011Z,22.3
2017-12-24T23:22:05.361Z,22.3
2017-12-24T23:24:07.925Z,22.3
2017-12-24T23:26:12.339Z,22.3
2017-12-24T23:28:05.367Z,22.3
2017-12-24T23:30:05.174Z,22.3
2017-12-24T23:32:05.018Z,22.3
2017-12-24T23:34:04.804Z,22.3
2017-12-24T23:36:04.813Z,22.3
2017-12-24T23:38:05.661Z,22.3
2017-12-24T23:40:05.489Z,22.3
2017-12-24T23:42:05.263Z,22.3
2017-12-24T23:44:05.591Z,22.3
2017-12-24T23:46:05.376Z,22.3
2017-12-24T23:48:04.656Z,22.3
2017-12-24T23:50:05.404Z,22.3
2017-12-24T23:52:07.673Z,22.2
2017-12-24T23:54:05.494Z,22.2
2017-12-24T23:56:07.417Z,22.3
2017-12-24T23:58:09.883Z,22.3
